Time;durP1;ratioP1;P1;durP2;ratioP2;P2;SDS_P1;SDS_P2;PMS_P1;PMS_P2;Temp;Humidity;BMP_temperature;BMP_pressure;BME280_temperature;BME280_humidity;BME280_pressure;Samples;Min_cycle;Max_cycle;Signal;HPM_P1;HPM_P2
2022/05/18 00:00:02;;;;;;;6.75;3.10;;;11.30;60.10;;;;;;5075452;28;20031;-86
2022/05/18 00:02:28;;;;;;;4.72;2.65;;;11.30;60.30;;;;;;5076191;28;20036;-87
2022/05/18 00:04:53;;;;;;;2.88;2.38;;;11.20;60.20;;;;;;5076644;28;20020;-86
2022/05/18 00:07:19;;;;;;;5.07;2.50;;;11.20;60.40;;;;;;5076328;28;20028;-86
2022/05/18 00:09:45;;;;;;;4.15;2.45;;;11.10;60.50;;;;;;5075070;28;20050;-86
2022/05/18 00:12:11;;;;;;;6.43;2.35;;;11.10;60.50;;;;;;5075157;28;20028;-86
2022/05/18 00:14:38;;;;;;;5.13;2.78;;;11.10;60.50;;;;;;5075132;28;20382;-85
2022/05/18 00:17:04;;;;;;;5.00;2.75;;;11.00;61.40;;;;;;5075051;28;20025;-87
2022/05/18 00:19:33;;;;;;;13.15;2.70;;;10.90;61.70;;;;;;5075213;28;20056;-87
2022/05/18 00:22:00;;;;;;;4.15;2.30;;;10.90;61.70;;;;;;5076077;28;20032;-88
2022/05/18 00:24:26;;;;;;;5.57;2.35;;;10.90;61.40;;;;;;5076064;28;20534;-86
2022/05/18 00:26:52;;;;;;;4.57;2.28;;;10.80;61.50;;;;;;5076120;28;20024;-87
2022/05/18 00:29:18;;;;;;;9.93;2.47;;;10.80;61.70;;;;;;5074692;28;20028;-84
2022/05/18 00:31:46;;;;;;;4.15;2.50;;;10.80;62.30;;;;;;5074892;28;20031;-88
2022/05/18 00:34:14;;;;;;;2.92;2.17;;;10.70;62.70;;;;;;5074845;28;20016;-85
2022/05/18 00:36:40;;;;;;;5.03;2.33;;;10.70;62.60;;;;;;5075790;28;20046;-87
2022/05/18 00:39:06;;;;;;;6.45;2.10;;;10.70;63.10;;;;;;5074664;28;20029;-87
2022/05/18 00:41:32;;;;;;;4.28;2.30;;;10.60;62.70;;;;;;5074638;28;20433;-87
2022/05/18 00:43:58;;;;;;;6.60;2.40;;;10.60;62.90;;;;;;5075810;28;20032;-87
2022/05/18 00:46:24;;;;;;;5.32;2.38;;;10.60;63.10;;;;;;5074666;28;20119;-86
2022/05/18 00:48:52;;;;;;;2.60;2.10;;;10.50;63.00;;;;;;5074644;28;20543;-86
2022/05/18 00:51:31;;;;;;;3.72;2.30;;;10.40;63.30;;;;;;5075485;28;20032;-87
2022/05/18 00:54:06;;;;;;;4.03;2.28;;;10.40;63.60;;;;;;5075527;28;20467;-87
2022/05/18 00:56:54;;;;;;;5.97;3.03;;;10.40;63.70;;;;;;5075427;28;20021;-85
2022/05/18 00:59:35;;;;;;;7.60;3.00;;;10.40;64.20;;;;;;5073714;28;20032;-86
2022/05/18 01:02:02;;;;;;;8.02;3.15;;;10.40;64.60;;;;;;5075101;28;20429;-87
2022/05/18 01:04:28;;;;;;;4.78;2.88;;;10.40;64.20;;;;;;5073960;28;20024;-87
2022/05/18 01:07:01;;;;;;;5.63;2.75;;;10.40;63.80;;;;;;5074073;28;20364;-85
2022/05/18 01:09:35;;;;;;;8.18;2.90;;;10.30;64.00;;;;;;5074092;28;20025;-86
2022/05/18 01:12:02;;;;;;;6.88;2.30;;;10.30;64.00;;;;;;5074029;28;20021;-86
2022/05/18 01:14:43;;;;;;;4.47;2.15;;;10.20;64.60;;;;;;5073153;28;20504;-86
2022/05/18 01:17:11;;;;;;;;;;;10.20;65.10;;;;;;5074131;28;20029;-87
2022/05/18 01:19:44;;;;;;;7.18;1.80;;;10.10;66.30;;;;;;5074018;28;20263;-87
2022/05/18 01:22:35;;;;;;;4.50;2.08;;;10.10;66.30;;;;;;5074799;28;20032;-86
2022/05/18 01:25:32;;;;;;;3.55;1.80;;;10.00;66.50;;;;;;5073682;28;20024;-88
2022/05/18 01:28:00;;;;;;;4.70;2.13;;;10.00;67.40;;;;;;5074889;28;20116;-87
2022/05/18 01:30:28;;;;;;;3.88;2.05;;;9.90;67.30;;;;;;5073801;28;20028;-84
2022/05/18 01:32:57;;;;;;;2.85;1.60;;;9.80;67.20;;;;;;5074846;28;20032;-85
2022/05/18 01:35:29;;;;;;;5.88;1.70;;;9.80;67.20;;;;;;5074706;28;20044;-86
2022/05/18 01:37:57;;;;;;;7.18;1.58;;;9.80;67.80;;;;;;5073576;28;20024;-86
2022/05/18 01:40:23;;;;;;;8.18;1.63;;;9.80;67.90;;;;;;5073657;28;20021;-87
2022/05/18 01:43:14;;;;;;;3.08;1.38;;;9.70;68.20;;;;;;5073528;28;20429;-87
2022/05/18 01:45:41;;;;;;;8.77;1.77;;;9.60;68.30;;;;;;5062227;28;20448;-88
2022/05/18 01:48:12;;;;;;;2.97;1.70;;;9.60;68.00;;;;;;5073485;28;20032;-88
2022/05/18 01:50:39;;;;;;;3.17;1.80;;;9.60;68.50;;;;;;5073513;28;20040;-87
2022/05/18 01:53:05;;;;;;;3.80;1.80;;;9.50;69.20;;;;;;5073080;28;20463;-87
2022/05/18 01:55:32;;;;;;;7.15;2.15;;;9.50;69.20;;;;;;5073618;28;20035;-85
2022/05/18 01:57:59;;;;;;;7.72;1.98;;;9.40;69.40;;;;;;5073154;28;20029;-84
2022/05/18 02:00:25;;;;;;;6.78;1.75;;;9.40;70.00;;;;;;5074384;28;20410;-86
2022/05/18 02:02:51;;;;;;;5.93;1.90;;;9.40;70.10;;;;;;5073273;28;20093;-85
2022/05/18 02:05:17;;;;;;;4.70;1.60;;;9.40;70.30;;;;;;5073332;28;20064;-86
2022/05/18 02:07:42;;;;;;;6.32;1.95;;;9.40;70.50;;;;;;5074579;28;20115;-88
2022/05/18 02:10:09;;;;;;;3.78;1.60;;;9.40;70.60;;;;;;5073187;28;20024;-87
2022/05/18 02:12:35;;;;;;;14.98;1.80;;;9.40;71.00;;;;;;5073139;28;20116;-88
2022/05/18 02:15:03;;;;;;;2.35;1.50;;;9.40;71.00;;;;;;5074237;28;20059;-85
2022/05/18 02:17:30;;;;;;;5.65;1.60;;;9.50;70.90;;;;;;5073225;28;20024;-87
2022/05/18 02:19:57;;;;;;;3.08;1.70;;;9.50;71.00;;;;;;5074270;28;20048;-87
2022/05/18 02:22:24;;;;;;;4.93;2.00;;;9.50;70.80;;;;;;5073094;28;20036;-89
2022/05/18 02:24:50;;;;;;;5.95;1.92;;;9.50;70.30;;;;;;5074182;28;20020;-88
2022/05/18 02:27:16;;;;;;;4.60;1.70;;;9.50;70.70;;;;;;5073209;28;20036;-88
2022/05/18 02:29:42;;;;;;;5.47;1.95;;;9.50;70.70;;;;;;5072918;28;20111;-90
2022/05/18 02:32:09;;;;;;;5.65;1.73;;;9.50;70.90;;;;;;5073015;28;20059;-88
2022/05/18 02:34:35;;;;;;;9.00;1.98;;;9.50;71.00;;;;;;5074276;28;20107;-90
2022/05/18 02:37:02;;;;;;;3.90;2.28;;;9.50;70.20;;;;;;5072842;28;20075;-91
2022/05/18 02:39:27;;;;;;;3.15;1.60;;;9.40;70.40;;;;;;5073055;28;20211;-84
2022/05/18 02:41:53;;;;;;;4.13;1.52;;;9.40;71.30;;;;;;5072724;28;20105;-87
2022/05/18 02:44:19;;;;;;;5.57;1.45;;;9.30;72.10;;;;;;5073386;28;20039;-85
2022/05/18 02:46:45;;;;;;;4.05;1.40;;;9.30;72.50;;;;;;5072721;28;20106;-85
2022/05/18 02:49:11;;;;;;;4.43;1.50;;;9.30;72.80;;;;;;5072553;28;20085;-85
2022/05/18 02:51:39;;;;;;;5.57;1.52;;;9.30;72.60;;;;;;5072661;28;20364;-86
2022/05/18 02:56:05;;;;;;;6.93;1.58;;;9.30;73.20;;;;;;5072702;28;20075;-87
2022/05/18 02:56:52;;;;;;;2.33;1.50;;;9.30;73.40;;;;;;5073721;28;20020;-90
2022/05/18 02:59:19;;;;;;;2.78;1.35;;;9.30;73.90;;;;;;5072926;28;20123;-87
2022/05/18 03:01:45;;;;;;;3.42;1.42;;;9.30;74.30;;;;;;5072630;28;20029;-86
2022/05/18 03:04:12;;;;;;;7.03;1.25;;;9.30;74.70;;;;;;5072527;28;20025;-89
2022/05/18 03:06:38;;;;;;;2.92;1.35;;;9.40;74.90;;;;;;5072841;28;20029;-87
2022/05/18 03:09:04;;;;;;;8.73;1.38;;;9.40;75.60;;;;;;5072357;28;20040;-87
2022/05/18 03:11:29;;;;;;;1.58;1.20;;;9.40;75.40;;;;;;5073943;28;20024;-88
2022/05/18 03:13:55;;;;;;;1.58;1.35;;;9.40;75.60;;;;;;5073424;28;20078;-85
2022/05/18 03:16:23;;;;;;;5.45;1.55;;;9.50;75.00;;;;;;5072468;28;20027;-87
2022/05/18 03:18:49;;;;;;;2.67;1.27;;;9.50;74.80;;;;;;5072539;28;20115;-87
2022/05/18 03:23:59;;;;;;;3.33;1.50;;;9.70;75.10;;;;;;5073729;28;20127;-84
2022/05/18 03:26:26;;;;;;;3.58;1.45;;;9.70;74.20;;;;;;5072476;28;20058;-89
2022/05/18 03:28:55;;;;;;;4.72;1.35;;;9.80;74.40;;;;;;5072510;28;20115;-87
2022/05/18 03:31:21;;;;;;;2.17;1.25;;;9.80;75.50;;;;;;5072151;28;20104;-85
2022/05/18 03:33:47;;;;;;;2.10;1.10;;;9.80;75.10;;;;;;5072426;28;20021;-85
2022/05/18 03:36:16;;;;;;;3.08;1.30;;;9.80;74.60;;;;;;5072558;28;20048;-85
2022/05/18 03:38:43;;;;;;;3.75;1.17;;;9.80;74.90;;;;;;5077231;28;20027;-86
2022/05/18 03:41:09;;;;;;;1.58;1.20;;;9.80;75.10;;;;;;5075963;28;20126;-88
2022/05/18 03:43:36;;;;;;;1.40;1.02;;;9.70;75.60;;;;;;5075814;28;20031;-86
2022/05/18 03:46:03;;;;;;;2.75;1.30;;;9.70;76.20;;;;;;5075475;28;20029;-88
2022/05/18 03:48:29;;;;;;;5.20;1.20;;;9.60;76.80;;;;;;5075814;28;20426;-88
2022/05/18 03:50:57;;;;;;;1.65;0.90;;;9.80;76.80;;;;;;5076747;28;20052;-86
2022/05/18 03:53:24;;;;;;;3.25;1.27;;;9.80;76.80;;;;;;5075744;28;20048;-87
2022/05/18 03:55:50;;;;;;;2.58;1.10;;;9.70;77.20;;;;;;5075767;28;20058;-86
2022/05/18 03:58:16;;;;;;;5.40;1.20;;;9.70;77.30;;;;;;5075708;28;20028;-85
2022/05/18 04:00:44;;;;;;;2.38;1.02;;;9.70;78.20;;;;;;5075579;28;20063;-90
2022/05/18 04:03:11;;;;;;;3.15;0.93;;;9.60;78.00;;;;;;5075672;28;20024;-89
2022/05/18 04:05:38;;;;;;;3.00;1.08;;;9.60;78.50;;;;;;5075511;28;20536;-88
2022/05/18 04:08:09;;;;;;;2.17;1.20;;;9.50;78.90;;;;;;5075369;28;20017;-90
2022/05/18 04:10:36;;;;;;;2.10;1.13;;;9.50;79.30;;;;;;5075806;28;20463;-86
2022/05/18 04:13:02;;;;;;;2.22;1.08;;;9.50;79.50;;;;;;5076602;28;20052;-89
2022/05/18 04:15:28;;;;;;;3.00;1.00;;;9.50;79.30;;;;;;5075492;28;20383;-91
2022/05/18 04:17:55;;;;;;;5.28;1.13;;;9.40;79.90;;;;;;5075261;28;20039;-90
2022/05/18 04:20:23;;;;;;;1.73;0.85;;;9.40;81.00;;;;;;5075232;28;20151;-88
2022/05/18 04:22:49;;;;;;;2.28;0.90;;;9.50;80.90;;;;;;5075238;28;20033;-90
2022/05/18 04:25:19;;;;;;;2.55;1.15;;;9.50;80.60;;;;;;5076560;28;20099;-88
2022/05/18 04:27:48;;;;;;;2.45;1.20;;;9.50;80.40;;;;;;5075371;28;20029;-89
2022/05/18 04:30:19;;;;;;;2.80;1.20;;;9.60;80.50;;;;;;5075203;28;20115;-88
2022/05/18 04:32:45;;;;;;;0.98;0.88;;;9.60;80.60;;;;;;5075101;28;20021;-88
2022/05/18 04:35:13;;;;;;;1.65;0.90;;;9.60;80.40;;;;;;5074962;28;20461;-89
2022/05/18 04:37:40;;;;;;;1.92;0.80;;;9.70;80.10;;;;;;5076127;28;20031;-90
2022/05/18 04:40:07;;;;;;;1.15;1.00;;;9.90;80.00;;;;;;5076014;28;20028;-87
2022/05/18 04:42:34;;;;;;;2.15;0.80;;;10.00;79.60;;;;;;5074722;28;20410;-88
2022/05/18 04:44:59;;;;;;;3.90;1.42;;;10.20;79.40;;;;;;5074713;28;20031;-90
2022/05/18 04:47:26;;;;;;;4.00;1.00;;;10.20;79.10;;;;;;5074095;28;20029;-89
2022/05/18 04:49:52;;;;;;;1.52;1.00;;;10.20;79.10;;;;;;5074156;28;20041;-88
2022/05/18 04:52:19;;;;;;;3.45;1.40;;;10.30;78.70;;;;;;5075764;28;20024;-86
2022/05/18 04:54:45;;;;;;;2.03;1.20;;;10.30;78.10;;;;;;5074936;28;20387;-87
2022/05/18 04:57:11;;;;;;;2.28;1.00;;;10.30;78.30;;;;;;5074747;28;20021;-86
2022/05/18 04:59:37;;;;;;;2.88;1.42;;;10.30;78.20;;;;;;5075511;28;20071;-89
2022/05/18 05:02:03;;;;;;;2.22;1.05;;;10.20;78.30;;;;;;5075454;28;20070;-89
2022/05/18 05:04:29;;;;;;;2.42;1.27;;;10.30;78.50;;;;;;5074250;28;20033;-86
2022/05/18 05:06:55;;;;;;;1.20;1.05;;;10.30;77.30;;;;;;5075592;28;20356;-86
2022/05/18 05:09:22;;;;;;;3.45;1.40;;;10.30;77.80;;;;;;5074280;28;20461;-86
2022/05/18 05:11:48;;;;;;;1.92;1.27;;;10.40;77.90;;;;;;5074102;28;20024;-86
2022/05/18 05:14:14;;;;;;;1.27;1.17;;;10.50;77.90;;;;;;5075176;28;20031;-85
2022/05/18 05:16:40;;;;;;;2.25;1.05;;;10.70;78.20;;;;;;5073649;28;20024;-87
2022/05/18 05:19:06;;;;;;;4.47;1.50;;;10.80;77.70;;;;;;5073946;28;20036;-86
2022/05/18 05:21:32;;;;;;;1.10;1.00;;;10.70;77.30;;;;;;5073885;28;20078;-90
2022/05/18 05:23:58;;;;;;;1.70;1.23;;;10.60;77.00;;;;;;5074218;28;20028;-88
2022/05/18 05:26:24;;;;;;;2.92;1.30;;;10.60;77.30;;;;;;5075152;28;20494;-87
2022/05/18 05:28:50;;;;;;;6.63;1.38;;;10.70;77.80;;;;;;5073856;28;20025;-87
2022/05/18 05:31:15;;;;;;;1.55;1.30;;;10.70;77.50;;;;;;5075076;28;20025;-88
2022/05/18 05:33:42;;;;;;;1.42;1.13;;;10.80;78.00;;;;;;5075032;28;20033;-90
2022/05/18 05:36:09;;;;;;;3.38;1.40;;;10.90;78.10;;;;;;5073817;28;20091;-87
2022/05/18 05:38:34;;;;;;;2.65;1.50;;;11.10;76.90;;;;;;5073566;28;20056;-87
2022/05/18 05:41:01;;;;;;;2.13;1.23;;;11.10;76.30;;;;;;5074657;28;20528;-89
2022/05/18 05:43:30;;;;;;;1.67;1.35;;;11.30;76.40;;;;;;5074502;28;20059;-91
2022/05/18 05:45:58;;;;;;;2.30;1.20;;;11.50;75.80;;;;;;5073533;28;20475;-86
2022/05/18 05:48:25;;;;;;;1.40;1.30;;;11.60;75.10;;;;;;5073621;28;20425;-88
2022/05/18 05:50:50;;;;;;;4.38;1.30;;;11.50;75.60;;;;;;5073489;28;20025;-87
2022/05/18 05:53:16;;;;;;;1.98;1.13;;;11.50;75.50;;;;;;5073580;28;20070;-90
2022/05/18 05:55:42;;;;;;;2.58;0.98;;;11.40;76.20;;;;;;5073478;28;20030;-87
2022/05/18 05:58:08;;;;;;;1.85;1.17;;;11.30;76.70;;;;;;5073550;28;20107;-89
2022/05/18 06:00:34;;;;;;;3.13;1.30;;;11.50;76.60;;;;;;5073121;28;20489;-86
2022/05/18 06:03:00;;;;;;;4.57;1.25;;;11.50;76.40;;;;;;5074573;28;20028;-87
2022/05/18 06:05:25;;;;;;;1.05;0.90;;;11.50;76.20;;;;;;5073418;28;20103;-87
2022/05/18 06:07:51;;;;;;;4.63;0.98;;;11.40;75.90;;;;;;5074205;28;20025;-86
2022/05/18 06:10:17;;;;;;;1.98;1.10;;;11.50;76.10;;;;;;5074055;28;20028;-86
2022/05/18 06:12:43;;;;;;;1.55;1.20;;;11.60;76.50;;;;;;5074455;28;20108;-89
2022/05/18 06:15:09;;;;;;;0.90;0.90;;;11.60;75.70;;;;;;5073501;28;20093;-91
2022/05/18 06:17:35;;;;;;;2.90;0.80;;;11.50;76.10;;;;;;5074262;28;20028;-88
2022/05/18 06:20:01;;;;;;;1.08;0.95;;;11.70;75.70;;;;;;5073982;28;20033;-85
2022/05/18 06:22:27;;;;;;;3.63;0.90;;;11.70;75.70;;;;;;5074101;28;20032;-88
2022/05/18 06:24:53;;;;;;;2.30;0.80;;;12.00;75.40;;;;;;5073197;28;20028;-87
2022/05/18 06:27:20;;;;;;;1.15;0.80;;;12.30;74.90;;;;;;5073003;28;20415;-87
2022/05/18 06:29:47;;;;;;;1.45;1.00;;;12.30;73.30;;;;;;5072909;28;20180;-91
2022/05/18 06:32:14;;;;;;;2.20;0.73;;;12.30;73.50;;;;;;5072877;28;20017;-88
2022/05/18 06:34:40;;;;;;;2.72;1.00;;;12.40;73.30;;;;;;5072773;28;20020;-87
2022/05/18 06:37:06;;;;;;;0.70;0.70;;;12.40;73.30;;;;;;5074018;28;20055;-87
2022/05/18 06:39:31;;;;;;;2.33;0.82;;;12.30;73.50;;;;;;5072397;28;20485;-87
2022/05/18 06:41:58;;;;;;;0.68;0.68;;;12.40;74.60;;;;;;5073056;28;20061;-88
2022/05/18 06:44:25;;;;;;;1.70;0.93;;;12.50;73.20;;;;;;5072807;28;20029;-89
2022/05/18 06:46:51;;;;;;;1.73;0.70;;;12.60;73.40;;;;;;5072863;28;20597;-88
2022/05/18 06:49:18;;;;;;;4.38;0.90;;;12.60;73.20;;;;;;5072714;28;20029;-87
2022/05/18 06:51:46;;;;;;;1.45;0.65;;;12.60;73.80;;;;;;5072712;28;20028;-91
2022/05/18 06:54:13;;;;;;;0.60;0.40;;;12.60;71.80;;;;;;5072807;28;20020;-88
2022/05/18 06:56:43;;;;;;;2.08;0.88;;;12.40;71.90;;;;;;5072530;28;20532;-89
2022/05/18 06:59:11;;;;;;;1.60;0.80;;;12.30;72.20;;;;;;5072863;28;20029;-86
2022/05/18 07:01:37;;;;;;;0.52;0.52;;;12.40;73.40;;;;;;5073799;28;20039;-85
2022/05/18 07:04:04;;;;;;;2.80;0.85;;;12.60;72.70;;;;;;5073735;28;20035;-86
2022/05/18 07:06:33;;;;;;;2.58;0.60;;;12.80;73.00;;;;;;5073640;28;20033;-87
2022/05/18 07:09:00;;;;;;;2.08;1.00;;;12.90;71.40;;;;;;5072256;28;20051;-86
2022/05/18 07:11:27;;;;;;;2.80;0.80;;;12.90;71.10;;;;;;5073602;28;20491;-88
2022/05/18 07:13:54;;;;;;;0.95;0.80;;;12.90;72.40;;;;;;5077403;28;20082;-85
2022/05/18 07:16:22;;;;;;;1.30;0.80;;;12.80;70.80;;;;;;5077436;28;20033;-91
2022/05/18 07:18:48;;;;;;;1.08;0.40;;;12.70;70.80;;;;;;5076284;28;20033;-88
2022/05/18 07:21:15;;;;;;;0.82;0.70;;;12.80;72.10;;;;;;5076498;28;20031;-86
2022/05/18 07:23:41;;;;;;;2.25;0.77;;;13.10;72.20;;;;;;5076123;28;20043;-87
2022/05/18 07:26:07;;;;;;;0.90;0.73;;;13.30;71.60;;;;;;5075806;28;20482;-85
2022/05/18 07:28:33;;;;;;;3.67;0.85;;;13.40;70.40;;;;;;5075968;28;20487;-86
2022/05/18 07:30:59;;;;;;;2.38;0.95;;;13.70;69.30;;;;;;5077210;28;20036;-86
2022/05/18 07:33:26;;;;;;;1.95;0.55;;;13.90;68.70;;;;;;5076196;28;20020;-88
2022/05/18 07:35:54;;;;;;;5.93;1.10;;;14.00;68.90;;;;;;5076955;28;20095;-88
2022/05/18 07:38:22;;;;;;;1.95;0.60;;;14.00;68.50;;;;;;5076041;28;20021;-88
2022/05/18 07:40:49;;;;;;;2.20;0.90;;;13.80;68.50;;;;;;5075885;28;20024;-86
2022/05/18 07:43:17;;;;;;;2.00;0.85;;;13.50;68.50;;;;;;5072314;28;20455;-87
2022/05/18 07:45:43;;;;;;;2.00;0.88;;;13.50;68.60;;;;;;5065871;28;20402;-88
2022/05/18 07:48:09;;;;;;;3.08;0.95;;;13.40;68.10;;;;;;5075666;28;20024;-87
2022/05/18 07:50:34;;;;;;;2.30;1.00;;;13.30;68.60;;;;;;5077090;28;20024;-84
2022/05/18 07:53:01;;;;;;;3.97;1.00;;;13.40;69.40;;;;;;5075720;28;20024;-87
2022/05/18 07:55:27;;;;;;;5.40;0.95;;;13.40;70.60;;;;;;5075755;28;20024;-87
2022/05/18 07:57:53;;;;;;;1.00;0.93;;;13.40;69.90;;;;;;5075577;28;20016;-86
2022/05/18 08:00:21;;;;;;;2.70;1.20;;;13.50;69.50;;;;;;5074067;28;20097;-89
2022/05/18 08:02:47;;;;;;;0.93;0.93;;;13.50;68.60;;;;;;5075395;28;20029;-84
2022/05/18 08:05:13;;;;;;;1.33;1.20;;;13.50;69.30;;;;;;5076933;28;20429;-84
2022/05/18 08:07:45;;;;;;;4.15;1.20;;;13.50;69.70;;;;;;5070620;28;20032;-84
2022/05/18 08:15:43;;;;;;;2.08;0.75;;;13.80;67.60;;;;;;5065797;28;20078;-87
2022/05/18 08:18:09;;;;;;;1.98;0.60;;;13.50;67.60;;;;;;5065041;28;20048;-86
2022/05/18 08:20:38;;;;;;;3.83;0.70;;;13.60;68.40;;;;;;5065344;28;20021;-84
2022/05/18 08:23:05;;;;;;;4.57;0.93;;;13.70;69.30;;;;;;5063015;28;20027;-86
2022/05/18 08:25:30;;;;;;;4.82;1.13;;;13.90;69.50;;;;;;5065605;28;20024;-87
2022/05/18 08:27:56;;;;;;;1.50;0.70;;;13.80;68.60;;;;;;5064918;28;20399;-86
2022/05/18 08:30:23;;;;;;;3.13;1.00;;;13.70;69.00;;;;;;5065145;28;20028;-85
2022/05/18 08:32:50;;;;;;;5.78;1.50;;;13.60;69.40;;;;;;5065148;28;20517;-85
2022/05/18 08:35:17;;;;;;;2.97;0.80;;;12.80;73.00;;;;;;5064404;28;20502;-85
2022/05/18 08:37:48;;;;;;;2.85;0.80;;;12.20;77.90;;;;;;5065262;28;20036;-86
2022/05/18 08:40:38;;;;;;;0.93;0.70;;;11.60;76.50;;;;;;5065696;28;20017;-85
2022/05/18 08:43:10;;;;;;;1.50;0.68;;;11.60;80.60;;;;;;5061951;28;20373;-86
2022/05/18 08:45:42;;;;;;;1.50;0.63;;;11.80;78.80;;;;;;5064612;28;20029;-88
2022/05/18 08:48:20;;;;;;;2.05;0.93;;;12.00;74.90;;;;;;5064961;28;20036;-88
2022/05/18 08:50:47;;;;;;;0.73;0.70;;;12.20;74.30;;;;;;5063677;28;20016;-87
2022/05/18 08:53:41;;;;;;;2.20;0.70;;;12.50;72.20;;;;;;5063826;28;20021;-84
2022/05/18 08:56:41;;;;;;;0.85;0.85;;;12.70;70.30;;;;;;5064018;28;20024;-84
2022/05/18 08:59:19;;;;;;;1.75;0.65;;;12.80;69.30;;;;;;5054351;28;20051;-86
2022/05/18 09:01:49;;;;;;;0.60;0.60;;;13.10;67.50;;;;;;5062440;28;20025;-84
2022/05/18 09:04:14;;;;;;;1.90;1.27;;;13.30;68.30;;;;;;5063408;28;20052;-88
2022/05/18 09:06:46;;;;;;;2.83;1.80;;;13.50;68.70;;;;;;5064948;28;20061;-89
2022/05/18 09:12:08;;;;;;;0.95;0.95;;;14.00;69.00;;;;;;5063480;28;20415;-88
2022/05/18 09:14:37;;;;;;;5.65;1.10;;;14.20;67.20;;;;;;5064945;28;20017;-87
2022/05/18 09:17:11;;;;;;;8.80;1.10;;;14.10;66.70;;;;;;5062434;28;20104;-87
2022/05/18 09:19:40;;;;;;;0.75;0.70;;;14.00;67.30;;;;;;5064369;28;20747;-87
2022/05/18 09:22:21;;;;;;;2.45;1.08;;;13.90;66.40;;;;;;5064788;28;20024;-89
2022/05/18 09:25:05;;;;;;;1.77;0.80;;;13.50;65.60;;;;;;5063865;28;20456;-91
2022/05/18 09:28:09;;;;;;;0.73;0.73;;;13.30;64.10;;;;;;5063065;28;20383;-89
2022/05/18 09:30:38;;;;;;;1.67;1.05;;;13.00;64.30;;;;;;5066695;28;20033;-92
2022/05/18 09:33:36;;;;;;;1.38;0.88;;;13.20;65.40;;;;;;5065411;28;20021;-92
2022/05/18 09:36:39;;;;;;;3.15;0.80;;;13.50;65.70;;;;;;5035518;28;20394;-90
2022/05/18 09:39:19;;;;;;;2.65;0.90;;;13.80;66.30;;;;;;5073703;28;20020;-91
2022/05/18 09:41:52;;;;;;;1.05;0.95;;;14.20;66.30;;;;;;5075058;28;20028;-91
2022/05/18 09:44:55;;;;;;;1.13;0.98;;;14.40;64.30;;;;;;5073607;28;20121;-88
2022/05/18 09:47:23;;;;;;;2.65;0.93;;;14.70;64.60;;;;;;5075330;28;20029;-91
2022/05/18 09:49:52;;;;;;;3.95;1.38;;;14.80;64.90;;;;;;5074991;28;20024;-92
2022/05/18 09:52:26;;;;;;;4.03;1.85;;;14.60;67.90;;;;;;5073979;28;20025;-96
2022/05/18 09:55:01;;;;;;;6.28;1.60;;;14.00;71.20;;;;;;5073675;28;20074;-92
2022/05/18 09:57:34;;;;;;;1.35;0.70;;;13.20;76.30;;;;;;5073181;28;20025;-84
2022/05/18 10:00:11;;;;;;;3.83;0.93;;;12.40;81.10;;;;;;5074301;28;20021;-85
2022/05/18 10:08:19;;;;;;;3.03;1.80;;;11.20;90.20;;;;;;5074497;28;20055;-89
2022/05/18 10:10:46;;;;;;;3.25;1.25;;;11.20;87.70;;;;;;5073390;28;20463;-88
2022/05/18 10:13:19;;;;;;;1.10;1.00;;;11.30;87.40;;;;;;5074315;28;20029;-87
2022/05/18 10:15:58;;;;;;;3.28;1.30;;;11.40;84.20;;;;;;5073171;28;20039;-88
2022/05/18 10:18:44;;;;;;;5.97;1.38;;;11.60;82.40;;;;;;5073214;28;20020;-87
2022/05/18 10:21:12;;;;;;;1.40;1.15;;;11.90;81.50;;;;;;5073407;28;20025;-88
2022/05/18 10:23:50;;;;;;;1.13;0.85;;;12.40;81.70;;;;;;5072867;28;20029;-88
2022/05/18 10:26:35;;;;;;;2.03;1.13;;;12.90;75.50;;;;;;5074090;28;20021;-86
2022/05/18 10:29:03;;;;;;;1.48;0.70;;;13.30;75.30;;;;;;5073999;28;20026;-90
2022/05/18 10:31:36;;;;;;;1.30;1.00;;;13.50;73.70;;;;;;5074138;28;20074;-88
2022/05/18 10:34:14;;;;;;;2.88;1.48;;;13.80;72.30;;;;;;5074458;28;20367;-91
2022/05/18 10:36:50;;;;;;;1.40;1.30;;;14.30;71.70;;;;;;5072947;28;20090;-87
2022/05/18 10:39:32;;;;;;;1.38;1.13;;;14.70;70.70;;;;;;5072981;28;20025;-86
2022/05/18 10:42:00;;;;;;;4.38;1.05;;;14.50;69.00;;;;;;5073179;28;20028;-88
2022/05/18 10:44:36;;;;;;;5.53;1.13;;;14.20;69.40;;;;;;5072927;28;20033;-87
2022/05/18 10:47:38;;;;;;;2.58;1.05;;;14.10;70.00;;;;;;5075061;28;20025;-89
2022/05/18 10:50:21;;;;;;;3.95;2.20;;;13.80;70.50;;;;;;5064482;28;20036;-87
2022/05/18 10:52:47;;;;;;;4.78;1.60;;;13.70;71.50;;;;;;5076830;28;20506;-86
2022/05/18 10:55:20;;;;;;;2.17;1.17;;;14.00;71.80;;;;;;5076664;28;20071;-90
2022/05/18 10:57:57;;;;;;;2.58;1.08;;;14.40;69.80;;;;;;5078028;28;20020;-87
2022/05/18 11:00:54;;;;;;;3.28;1.58;;;14.70;67.60;;;;;;5076697;28;20123;-85
2022/05/18 11:03:27;;;;;;;6.28;2.60;;;14.80;67.80;;;;;;5077009;28;20029;-94
2022/05/18 11:06:07;;;;;;;7.72;4.25;;;14.80;68.00;;;;;;5077350;28;20044;-90
2022/05/18 11:08:33;;;;;;;5.90;2.90;;;15.00;69.30;;;;;;5076626;28;20024;-86
2022/05/18 11:11:05;;;;;;;7.93;3.20;;;15.10;68.30;;;;;;5076581;28;20028;-87
2022/05/18 11:13:37;;;;;;;3.45;2.10;;;14.90;68.70;;;;;;5076383;28;20031;-84
2022/05/18 11:16:26;;;;;;;7.13;3.10;;;14.80;68.60;;;;;;5075885;28;20066;-85
2022/05/18 11:19:07;;;;;;;3.90;3.00;;;14.60;69.80;;;;;;5075518;28;20407;-87
2022/05/18 11:22:17;;;;;;;6.45;2.85;;;14.70;71.20;;;;;;5066659;28;20036;-89
2022/05/18 11:24:47;;;;;;;4.38;2.78;;;14.60;72.00;;;;;;5056547;28;20025;-89
2022/05/18 11:27:46;;;;;;;4.03;1.90;;;14.70;72.00;;;;;;5056409;28;20033;-87
2022/05/18 11:30:24;;;;;;;1.45;1.35;;;14.80;71.00;;;;;;5057460;28;20100;-89
2022/05/18 11:33:08;;;;;;;5.60;1.20;;;15.00;69.70;;;;;;5056301;28;20467;-89
2022/05/18 11:36:03;;;;;;;3.15;1.10;;;15.10;69.60;;;;;;5056254;28;20057;-95
2022/05/18 11:39:20;;;;;;;1.95;0.80;;;15.30;69.30;;;;;;5064235;28;20493;-87
2022/05/18 11:42:03;;;;;;;2.70;0.90;;;15.30;68.80;;;;;;5012454;28;20036;-89
2022/05/18 11:45:08;;;;;;;3.45;0.93;;;15.10;70.40;;;;;;5064777;28;20013;-88
2022/05/18 11:47:52;;;;;;;2.05;0.90;;;15.30;71.00;;;;;;5067384;28;20017;-91
2022/05/18 11:50:34;;;;;;;6.38;0.75;;;15.90;68.70;;;;;;5065842;28;20024;-89
2022/05/18 11:53:12;;;;;;;3.47;0.73;;;16.30;67.30;;;;;;5067856;28;20017;-88
2022/05/18 11:55:38;;;;;;;1.15;0.70;;;16.60;65.30;;;;;;5071310;28;20059;-94
2022/05/18 11:58:25;;;;;;;1.48;0.75;;;17.10;65.10;;;;;;5073974;28;20468;-93
2022/05/18 12:01:08;;;;;;;2.58;0.60;;;17.40;63.50;;;;;;5069416;28;20179;-94
2022/05/18 12:04:19;;;;;;;1.67;0.90;;;17.40;62.60;;;;;;5057115;28;20473;-90
2022/05/18 12:06:52;;;;;;;2.35;0.50;;;17.90;62.60;;;;;;5010094;28;20037;-93
2022/05/18 12:09:42;;;;;;;0.90;0.52;;;18.70;61.40;;;;;;5059559;28;20120;-90
2022/05/18 12:12:29;;;;;;;1.52;0.50;;;18.70;60.00;;;;;;5074209;28;20050;-94
2022/05/18 12:15:20;;;;;;;0.47;0.30;;;18.80;58.80;;;;;;5075916;28;20029;-91
2022/05/18 12:17:58;;;;;;;4.55;0.77;;;18.40;60.20;;;;;;5075787;28;20016;-92
2022/05/18 12:20:32;;;;;;;1.33;0.40;;;17.60;61.30;;;;;;5076120;28;20028;-88
2022/05/18 12:23:06;;;;;;;2.40;0.55;;;16.90;63.60;;;;;;5075668;28;20036;-95
2022/05/18 12:25:34;;;;;;;4.78;0.65;;;16.60;64.80;;;;;;5075397;28;20032;-94
2022/05/18 12:28:02;;;;;;;1.00;0.50;;;16.30;65.40;;;;;;5070744;28;20494;-95
2022/05/18 12:30:33;;;;;;;1.17;0.43;;;16.20;65.50;;;;;;5059788;28;20036;-89
2022/05/18 12:33:01;;;;;;;1.13;0.52;;;16.00;65.80;;;;;;5065961;28;20426;-93
2022/05/18 12:35:45;;;;;;;0.57;0.57;;;15.50;67.60;;;;;;5055104;28;20052;-88
2022/05/18 12:38:31;;;;;;;0.65;0.40;;;15.40;68.30;;;;;;5063160;28;20052;-90
2022/05/18 12:41:10;;;;;;;1.42;0.38;;;15.60;68.30;;;;;;5055406;28;20105;-94
2022/05/18 12:43:48;;;;;;;0.32;0.32;;;15.90;67.10;;;;;;5071697;28;20379;-89
2022/05/18 12:46:14;;;;;;;0.38;0.20;;;15.90;68.80;;;;;;5057414;28;20037;-91
2022/05/18 12:48:52;;;;;;;0.22;0.22;;;16.20;67.70;;;;;;5055756;28;20037;-94
2022/05/18 12:51:32;;;;;;;1.92;0.60;;;16.20;67.10;;;;;;5061436;28;20460;-92
2022/05/18 12:54:10;;;;;;;1.27;0.30;;;16.10;67.90;;;;;;5074517;28;20020;-89
2022/05/18 12:56:39;;;;;;;3.28;0.50;;;16.30;68.10;;;;;;5073719;28;20024;-96
2022/05/18 12:59:24;;;;;;;2.60;0.45;;;16.30;69.50;;;;;;5073612;28;20029;-89
2022/05/18 13:02:04;;;;;;;1.25;0.40;;;16.50;69.50;;;;;;5073603;28;20137;-89
2022/05/18 13:04:40;;;;;;;0.73;0.45;;;16.10;70.50;;;;;;5073885;28;20103;-91
2022/05/18 13:07:26;;;;;;;1.80;0.57;;;15.90;70.80;;;;;;5074874;28;20025;-89
2022/05/18 13:10:12;;;;;;;3.08;0.70;;;15.20;72.80;;;;;;5072888;28;20510;-88
2022/05/18 13:12:56;;;;;;;1.88;0.52;;;15.20;74.40;;;;;;5075460;28;20028;-90
2022/05/18 13:15:35;;;;;;;2.47;0.65;;;14.90;75.30;;;;;;5074149;28;20395;-92
2022/05/18 13:18:16;;;;;;;6.40;0.57;;;15.30;75.80;;;;;;5075384;28;20024;-90
2022/05/18 13:20:48;;;;;;;4.50;0.70;;;15.20;74.70;;;;;;5074302;28;20029;-88
2022/05/18 13:23:26;;;;;;;2.75;0.60;;;15.30;75.20;;;;;;5075617;28;20352;-90
2022/05/18 13:26:02;;;;;;;4.32;0.60;;;15.40;74.70;;;;;;5074669;28;20028;-91
2022/05/18 13:28:32;;;;;;;3.10;0.50;;;15.80;74.60;;;;;;5075299;28;20086;-88